createdAt,value
2022-11-19T00:00:57.611Z,7.9
2022-11-19T00:01:57.614Z,7.8
2022-11-19T00:02:57.589Z,7.7
2022-11-19T00:03:57.632Z,7.7
2022-11-19T00:04:57.637Z,7.6
2022-11-19T00:05:57.670Z,7.5
2022-11-19T00:06:57.708Z,7.6
2022-11-19T00:07:57.768Z,7.7
2022-11-19T00:08:57.763Z,7.7
2022-11-19T00:09:57.775Z,7.7
2022-11-19T00:10:57.804Z,7.8
2022-11-19T00:11:57.867Z,7.8
2022-11-19T00:12:57.917Z,7.6
2022-11-19T00:13:57.903Z,7.6
2022-11-19T00:14:57.937Z,7.6
2022-11-19T00:15:57.939Z,7.7
2022-11-19T00:16:57.989Z,7.7
2022-11-19T00:17:58.025Z,7.7
2022-11-19T00:18:58.061Z,7.6
2022-11-19T00:19:58.105Z,7.7
2022-11-19T00:20:58.114Z,7.7
2022-11-19T00:21:58.207Z,7.7
2022-11-19T00:22:58.184Z,7.7
2022-11-19T00:23:58.210Z,7.7
2022-11-19T00:24:58.257Z,7.8
2022-11-19T00:25:58.234Z,7.7
2022-11-19T00:26:58.274Z,7.6
2022-11-19T00:27:58.303Z,7.6
2022-11-19T00:28:58.366Z,7.6
2022-11-19T00:29:58.378Z,7.6
2022-11-19T00:30:58.407Z,7.7
2022-11-19T00:31:58.421Z,7.7
2022-11-19T00:32:58.481Z,7.7
2022-11-19T00:33:58.518Z,7.7
2022-11-19T00:34:58.526Z,7.7
2022-11-19T00:35:58.535Z,7.7
2022-11-19T00:36:58.669Z,7.6
2022-11-19T00:37:58.662Z,7.7
2022-11-19T00:38:58.659Z,7.7
2022-11-19T00:39:58.673Z,7.7
2022-11-19T00:40:58.687Z,7.6
2022-11-19T00:41:58.745Z,7.6
2022-11-19T00:42:58.788Z,7.5
2022-11-19T00:43:58.825Z,7.5
2022-11-19T00:44:58.868Z,7.5
2022-11-19T00:45:58.924Z,7.5
2022-11-19T00:46:58.932Z,7.5
2022-11-19T00:47:59.044Z,7.5
2022-11-19T00:48:59.104Z,7.4
2022-11-19T00:49:59.163Z,7.3
2022-11-19T00:50:59.243Z,7.3
2022-11-19T00:51:59.284Z,7.3
2022-11-19T00:52:59.356Z,7.3
2022-11-19T00:53:59.455Z,7.3
2022-11-19T00:54:59.503Z,7.5
2022-11-19T00:55:59.549Z,7.5
2022-11-19T00:56:59.584Z,7.5
2022-11-19T00:57:59.611Z,7.4
2022-11-19T00:58:59.619Z,7.4
2022-11-19T00:59:59.668Z,7.4
2022-11-19T01:00:59.735Z,7.4
2022-11-19T01:01:59.721Z,7.4
2022-11-19T01:02:59.782Z,7.4
2022-11-19T01:03:59.787Z,7.4
2022-11-19T01:04:59.796Z,7.3
2022-11-19T01:05:59.842Z,7.3
2022-11-19T01:06:59.883Z,7.4
2022-11-19T01:07:59.901Z,7.4
2022-11-19T01:08:59.953Z,7.5
2022-11-19T01:09:59.970Z,7.6
2022-11-19T01:10:59.963Z,7.5
2022-11-19T01:11:59.973Z,7.4
2022-11-19T01:13:00.067Z,7.4
2022-11-19T01:14:00.063Z,7.4
2022-11-19T01:15:00.111Z,7.3
2022-11-19T01:16:00.138Z,7.3
2022-11-19T01:17:00.164Z,7.3
2022-11-19T01:18:00.197Z,7.3
2022-11-19T01:19:00.195Z,7.4
2022-11-19T01:20:00.332Z,7.4
2022-11-19T01:21:00.274Z,7.5
2022-11-19T01:22:00.306Z,7.4
2022-11-19T01:23:00.360Z,7.4
2022-11-19T01:24:00.389Z,7.2
2022-11-19T01:25:00.409Z,7.2
2022-11-19T01:26:00.484Z,7.1
2022-11-19T01:27:00.492Z,7.2
2022-11-19T01:28:00.565Z,7.2
2022-11-19T01:29:00.561Z,7.1
2022-11-19T01:30:00.588Z,7.2
2022-11-19T01:31:00.613Z,7.3
2022-11-19T01:32:00.647Z,7.4
2022-11-19T01:33:00.719Z,7.3
2022-11-19T01:34:00.705Z,7.4
2022-11-19T01:35:00.803Z,7.3
2022-11-19T01:36:00.769Z,7.3
2022-11-19T01:37:00.829Z,7.2
2022-11-19T01:38:00.853Z,7.2
2022-11-19T01:39:00.872Z,7.3
2022-11-19T01:40:00.918Z,7.4
2022-11-19T01:41:00.934Z,7.3
2022-11-19T01:42:00.984Z,7.3
2022-11-19T01:43:01.050Z,7.2
2022-11-19T01:44:01.054Z,7.1
2022-11-19T01:45:01.115Z,7.2
2022-11-19T01:46:01.089Z,7.3
2022-11-19T01:47:01.130Z,7.2
2022-11-19T01:48:01.199Z,7.2
2022-11-19T01:49:01.310Z,7.2
2022-11-19T01:50:01.247Z,7.2
2022-11-19T01:51:01.283Z,7.4
2022-11-19T01:52:01.329Z,7.4
2022-11-19T01:53:01.386Z,7.2
2022-11-19T01:54:01.413Z,7.1
2022-11-19T01:55:01.459Z,7.1
2022-11-19T01:56:01.503Z,7.3
2022-11-19T01:57:01.522Z,7.4
2022-11-19T01:58:01.603Z,7.2
2022-11-19T01:59:01.665Z,7.1
2022-11-19T02:00:01.706Z,7.2
2022-11-19T02:01:01.801Z,7.1
2022-11-19T02:02:01.836Z,7.2
2022-11-19T02:03:01.969Z,7.2
2022-11-19T02:04:02.037Z,7.2
2022-11-19T02:05:02.080Z,7
2022-11-19T02:06:02.103Z,7.1
2022-11-19T02:07:02.218Z,7
2022-11-19T02:08:02.229Z,7.1
2022-11-19T02:09:02.288Z,7.2
2022-11-19T02:10:02.263Z,7.2
2022-11-19T02:11:02.276Z,7.2
2022-11-19T02:12:02.308Z,7.1
2022-11-19T02:13:02.366Z,7.1
2022-11-19T02:14:02.405Z,7.2
2022-11-19T02:15:02.425Z,7.3
2022-11-19T02:16:02.455Z,7.2
2022-11-19T02:17:02.512Z,7.1
2022-11-19T02:18:02.544Z,7
2022-11-19T02:19:02.582Z,7
2022-11-19T02:20:02.608Z,6.9
2022-11-19T02:21:02.659Z,6.8
2022-11-19T02:22:02.656Z,6.9
2022-11-19T02:23:02.739Z,6.8
2022-11-19T02:24:02.733Z,6.7
2022-11-19T02:25:02.762Z,6.8
2022-11-19T02:26:02.822Z,6.9
2022-11-19T02:27:02.834Z,6.8
2022-11-19T02:28:02.911Z,7
2022-11-19T02:29:02.894Z,7.1
2022-11-19T02:30:02.962Z,7.1
2022-11-19T02:31:02.976Z,7.1
2022-11-19T02:32:03.048Z,7.1
2022-11-19T02:33:03.079Z,7
2022-11-19T02:34:03.099Z,7
2022-11-19T02:35:03.120Z,7.1
2022-11-19T02:36:03.159Z,6.9
2022-11-19T02:37:03.197Z,6.8
2022-11-19T02:38:03.213Z,6.9
2022-11-19T02:39:03.249Z,6.9
2022-11-19T02:40:03.310Z,6.8
2022-11-19T02:41:03.347Z,6.8
2022-11-19T02:42:03.358Z,6.7
2022-11-19T02:43:03.472Z,6.9
2022-11-19T02:44:03.432Z,6.9
2022-11-19T02:45:03.466Z,6.9
2022-11-19T02:46:03.524Z,6.7
2022-11-19T02:47:03.536Z,6.7
2022-11-19T02:48:03.600Z,6.7
2022-11-19T02:49:03.634Z,6.7
2022-11-19T02:50:03.716Z,6.7
2022-11-19T02:51:03.713Z,6.8
2022-11-19T02:52:03.730Z,6.7
2022-11-19T02:53:03.842Z,6.6
2022-11-19T02:54:03.825Z,6.6
2022-11-19T02:55:03.894Z,6.5
2022-11-19T02:56:03.877Z,6.6
2022-11-19T02:57:03.925Z,6.4
2022-11-19T02:58:04.022Z,6.2
2022-11-19T02:59:03.988Z,6.2
2022-11-19T03:00:04.027Z,6.1
2022-11-19T03:01:04.303Z,6
2022-11-19T03:02:04.126Z,5.8
2022-11-19T03:03:04.178Z,5.7
2022-11-19T03:04:04.200Z,5.7
2022-11-19T03:05:04.239Z,5.8
2022-11-19T03:23:32.167Z,5.3
2022-11-19T03:24:32.494Z,5.4
2022-11-19T03:25:32.149Z,5.4
2022-11-19T03:26:32.466Z,5.3
2022-11-19T03:27:33.463Z,5.2
2022-11-19T03:28:32.564Z,5.4
2022-11-19T03:29:32.625Z,5.4
2022-11-19T03:30:32.189Z,5.4
2022-11-19T03:32:00.054Z,5.4
2022-11-19T03:32:32.471Z,5.3
2022-11-19T03:33:32.457Z,5.1
2022-11-19T03:34:32.210Z,5.4
2022-11-19T03:35:32.459Z,5.3
2022-11-19T03:36:33.002Z,5.1
2022-11-19T03:37:33.189Z,5
2022-11-19T03:38:32.532Z,5
2022-11-19T03:39:32.955Z,5.1
2022-11-19T03:40:33.539Z,5
2022-11-19T03:41:33.669Z,4.9
2022-11-19T03:42:32.850Z,4.8
2022-11-19T03:43:33.408Z,4.9
2022-11-19T03:44:33.020Z,5
2022-11-19T03:45:32.949Z,4.7
2022-11-19T03:46:33.711Z,4.6
2022-11-19T03:47:33.287Z,4.5
2022-11-19T03:48:33.226Z,4.7
2022-11-19T03:49:33.717Z,4.7
2022-11-19T03:50:33.081Z,4.5
2022-11-19T03:51:47.448Z,4.6
2022-11-19T03:52:33.827Z,4.6
2022-11-19T03:53:40.278Z,4.5
2022-11-19T03:54:41.429Z,4.4
2022-11-19T04:06:38.724Z,4.5
2022-11-19T04:07:38.777Z,4.7
2022-11-19T04:08:49.315Z,4.5
2022-11-19T04:09:49.964Z,4.4
2022-11-19T04:17:45.890Z,4.1
2022-11-19T04:18:46.308Z,4.2
2022-11-19T04:31:34.704Z,4.2
2022-11-19T04:41:47.992Z,3.5
2022-11-19T04:42:48.158Z,3.7
2022-11-19T04:43:47.189Z,3.7
2022-11-19T04:44:47.112Z,3.7
2022-11-19T04:45:47.976Z,3.5
2022-11-19T04:46:48.039Z,3.4
2022-11-19T04:47:58.192Z,3.4
2022-11-19T04:49:12.784Z,3.5
2022-11-19T04:50:27.954Z,3.3
2022-11-19T04:51:42.678Z,3.4
2022-11-19T04:52:58.021Z,3.6
2022-11-19T04:54:12.827Z,3.3
2022-11-19T04:55:32.206Z,3.4
2022-11-19T04:56:43.102Z,3.5
2022-11-19T04:57:57.956Z,3.4
2022-11-19T04:59:12.961Z,3.1
2022-11-19T05:00:28.884Z,3
2022-11-19T05:07:01.271Z,3.2
2022-11-19T05:07:59.886Z,3.2
2022-11-19T05:09:00.106Z,3.1
2022-11-19T05:10:00.271Z,3.2
2022-11-19T05:11:18.174Z,3.2
2022-11-19T05:12:16.557Z,3.4
2022-11-19T05:17:00.599Z,3
2022-11-19T05:18:00.487Z,3.1
2022-11-19T05:18:59.835Z,2.9
2022-11-19T05:19:59.559Z,3.1
2022-11-19T05:20:59.455Z,3
2022-11-19T05:21:59.566Z,3
2022-11-19T05:22:59.730Z,2.9
2022-11-19T05:23:59.759Z,3
2022-11-19T05:25:02.159Z,2.9
2022-11-19T05:26:01.187Z,2.9
2022-11-19T05:27:04.116Z,2.8
2022-11-19T05:28:00.462Z,2.9
2022-11-19T05:28:59.964Z,2.9
2022-11-19T05:30:00.007Z,3.3
2022-11-19T05:31:00.085Z,3.1
2022-11-19T05:32:09.675Z,2.8
2022-11-19T05:33:00.609Z,2.6
2022-11-19T05:34:01.010Z,2.6
2022-11-19T05:35:01.621Z,2.6
2022-11-19T05:36:01.141Z,2.6
2022-11-19T05:37:00.961Z,2.6
2022-11-19T05:38:05.192Z,2.7
2022-11-19T05:39:08.042Z,2.6
2022-11-19T05:40:07.991Z,2.5
2022-11-19T05:41:08.761Z,2.5
2022-11-19T05:42:11.501Z,2.6
2022-11-19T05:43:03.123Z,2.5
2022-11-19T05:44:02.608Z,2.6
2022-11-19T05:45:03.174Z,2.6
2022-11-19T05:46:04.115Z,2.7
2022-11-19T05:47:01.498Z,2.7
2022-11-19T05:48:01.566Z,2.7
2022-11-19T05:49:04.915Z,2.7
2022-11-19T05:50:01.714Z,2.8
2022-11-19T05:51:01.805Z,2.8
2022-11-19T05:52:01.882Z,2.7
2022-11-19T05:53:02.021Z,2.7
2022-11-19T06:11:56.198Z,2.5
2022-11-19T06:12:56.378Z,2.5
2022-11-19T06:13:51.048Z,2.4
2022-11-19T06:14:51.125Z,2.3
2022-11-19T06:15:51.218Z,2.5
2022-11-19T06:16:51.256Z,2.6
2022-11-19T06:17:51.349Z,2.6
2022-11-19T06:18:51.402Z,2.5
2022-11-19T06:19:51.513Z,2.4
2022-11-19T06:20:51.626Z,2.5
2022-11-19T06:21:51.625Z,2.4
2022-11-19T06:22:51.740Z,2.4
2022-11-19T06:23:51.801Z,2.4
2022-11-19T06:24:51.871Z,2.5
2022-11-19T06:25:51.910Z,2.4
2022-11-19T06:34:52.684Z,2.4
2022-11-19T06:35:52.692Z,2.5
2022-11-19T06:36:52.785Z,2.5
2022-11-19T06:37:52.831Z,2.3
2022-11-19T06:38:52.910Z,2.3
2022-11-19T06:39:53.075Z,2.2
2022-11-19T06:40:53.081Z,2.6
2022-11-19T06:41:53.171Z,2.5
2022-11-19T06:42:53.751Z,2.4
2022-11-19T06:44:01.610Z,2.5
2022-11-19T06:45:12.837Z,2.4
2022-11-19T06:45:58.551Z,2.4
2022-11-19T06:46:54.022Z,2.2
2022-11-19T06:47:55.081Z,2.2
2022-11-19T06:48:55.389Z,2.3
2022-11-19T06:49:54.686Z,2.2
2022-11-19T06:51:05.568Z,2.2
2022-11-19T06:51:54.660Z,2.2
2022-11-19T06:52:54.817Z,2.1
2022-11-19T06:53:53.989Z,2.1
2022-11-19T06:54:54.022Z,2.2
2022-11-19T06:55:54.121Z,2.2
2022-11-19T06:56:54.200Z,2
2022-11-19T06:57:54.279Z,2.1
2022-11-19T06:58:54.334Z,2
2022-11-19T06:59:55.463Z,2
2022-11-19T07:01:01.379Z,2.1
2022-11-19T07:01:56.882Z,2.1
2022-11-19T07:02:55.607Z,2.1
2022-11-19T07:03:55.321Z,2.2
2022-11-19T07:18:15.144Z,1.9
2022-11-19T07:19:15.022Z,2
2022-11-19T07:20:15.061Z,2
2022-11-19T07:21:15.097Z,2
2022-11-19T07:22:15.167Z,2
2022-11-19T07:23:15.316Z,1.9
2022-11-19T07:24:15.310Z,2
2022-11-19T07:25:15.385Z,2
2022-11-19T07:26:15.483Z,1.9
2022-11-19T07:27:15.569Z,1.9
2022-11-19T07:28:15.673Z,2
2022-11-19T07:29:15.752Z,2
2022-11-19T07:30:15.915Z,2.1
2022-11-19T07:31:15.932Z,2
2022-11-19T07:32:16.001Z,2.1
2022-11-19T07:33:16.150Z,2.1
2022-11-19T07:34:16.210Z,2.3
2022-11-19T07:35:16.313Z,2.3
2022-11-19T07:36:18.498Z,2.1
2022-11-19T07:37:16.473Z,2
2022-11-19T07:38:16.580Z,2.2
2022-11-19T07:39:16.652Z,2.2
2022-11-19T07:40:16.772Z,2.2
2022-11-19T07:41:16.813Z,2.2
2022-11-19T07:42:16.917Z,2.1
2022-11-19T07:43:17.016Z,2.2
2022-11-19T07:44:17.105Z,2.2
2022-11-19T07:45:17.165Z,2.2
2022-11-19T07:46:17.276Z,2.5
2022-11-19T07:47:17.358Z,2.4
2022-11-19T07:48:17.484Z,2.3
2022-11-19T07:49:17.828Z,2.3
2022-11-19T07:50:17.679Z,2.6
2022-11-19T07:51:17.709Z,2.7
2022-11-19T07:52:17.836Z,2.8
2022-11-19T07:53:17.928Z,2.4
2022-11-19T07:54:18.004Z,2.2
2022-11-19T07:55:18.096Z,2.2
2022-11-19T07:56:18.150Z,2.2
2022-11-19T07:57:18.200Z,2.3
2022-11-19T07:58:18.296Z,2.3
2022-11-19T07:59:18.618Z,2.3
2022-11-19T08:00:18.398Z,2.3
2022-11-19T08:01:18.629Z,2.4
2022-11-19T08:02:18.565Z,2.4
2022-11-19T08:03:18.702Z,2.2
2022-11-19T08:04:18.723Z,2.2
2022-11-19T08:05:18.798Z,2.1
2022-11-19T08:06:18.914Z,2
2022-11-19T08:07:18.990Z,2.1
2022-11-19T08:08:19.043Z,2.2
2022-11-19T08:09:19.200Z,2.2
2022-11-19T08:10:19.177Z,2.2
2022-11-19T08:11:19.249Z,2.3
2022-11-19T08:12:19.347Z,2.3
2022-11-19T08:13:19.422Z,2.3
2022-11-19T08:14:19.523Z,2.2
2022-11-19T08:15:19.582Z,2.1
2022-11-19T08:16:19.648Z,2.2
2022-11-19T08:17:19.721Z,2.1
2022-11-19T08:18:19.866Z,2.3
2022-11-19T08:19:20.164Z,2.3
2022-11-19T08:20:20.024Z,2.3
2022-11-19T08:21:20.070Z,2.4
2022-11-19T08:22:20.169Z,2.3
2022-11-19T08:23:20.244Z,2.2
2022-11-19T08:24:20.631Z,2.1
2022-11-19T08:25:20.396Z,2.1
2022-11-19T08:26:20.448Z,2.1
2022-11-19T08:27:20.536Z,2
2022-11-19T08:28:20.652Z,1.9
2022-11-19T08:29:20.676Z,1.9
2022-11-19T08:30:20.768Z,2
2022-11-19T08:31:27.501Z,2
2022-11-19T08:32:20.935Z,2.1
2022-11-19T08:33:21.037Z,2.2
2022-11-19T08:34:21.272Z,2.1
2022-11-19T08:35:21.200Z,2.2
2022-11-19T08:36:21.294Z,2.3
2022-11-19T08:37:21.372Z,2.3
2022-11-19T08:38:21.520Z,2.2
2022-11-19T08:39:21.534Z,2.2
2022-11-19T08:40:21.619Z,2.2
2022-11-19T08:41:23.431Z,2.1
2022-11-19T08:42:21.734Z,2
2022-11-19T08:43:21.852Z,2
2022-11-19T08:45:00.328Z,2.1
2022-11-19T08:45:22.583Z,2.2
2022-11-19T08:46:22.051Z,2.2
2022-11-19T08:47:22.156Z,2.2
2022-11-19T08:48:22.217Z,2.3
2022-11-19T08:49:22.304Z,2.2
2022-11-19T08:50:22.340Z,2.1
2022-11-19T08:51:22.441Z,2.2
2022-11-19T08:52:22.491Z,2.3
2022-11-19T08:53:22.568Z,2.4
2022-11-19T08:54:22.997Z,2.4
2022-11-19T08:55:22.702Z,2.5
2022-11-19T08:56:22.781Z,2.3
2022-11-19T08:57:22.862Z,2.3
2022-11-19T08:58:22.931Z,2.4
2022-11-19T08:59:23.143Z,2.5
2022-11-19T09:00:23.168Z,2.5
2022-11-19T09:01:23.145Z,2.4
2022-11-19T09:02:23.202Z,2.3
2022-11-19T09:03:23.310Z,2.2
2022-11-19T09:04:23.405Z,2.4
2022-11-19T09:05:23.443Z,2.3
2022-11-19T09:06:23.497Z,2.5
2022-11-19T09:07:46.027Z,2.7
2022-11-19T09:08:55.409Z,2.5
2022-11-19T09:09:29.382Z,2.4
2022-11-19T09:10:23.718Z,2.5
2022-11-19T09:11:23.823Z,2.6
2022-11-19T09:12:24.432Z,2.6
2022-11-19T09:13:24.018Z,2.4
2022-11-19T09:14:32.912Z,2.5
2022-11-19T09:15:37.395Z,2.5
2022-11-19T09:16:24.158Z,2.4
2022-11-19T09:17:24.154Z,2.5
2022-11-19T09:18:24.244Z,2.7
2022-11-19T09:19:24.289Z,2.6
2022-11-19T09:20:24.388Z,2.6
2022-11-19T09:21:24.421Z,2.4
2022-11-19T09:22:24.544Z,2.5
2022-11-19T09:23:24.607Z,2.8
2022-11-19T09:24:24.655Z,2.6
2022-11-19T09:25:24.789Z,2.7
2022-11-19T09:26:24.807Z,2.5
2022-11-19T09:27:24.896Z,2.5
2022-11-19T09:28:25.067Z,2.4
2022-11-19T09:29:25.200Z,2.6
2022-11-19T09:30:25.127Z,2.5
2022-11-19T09:31:25.181Z,2.6
2022-11-19T09:32:25.726Z,2.7
2022-11-19T09:33:25.358Z,2.7
2022-11-19T09:34:25.481Z,2.8
2022-11-19T09:35:25.514Z,2.6
2022-11-19T09:36:25.614Z,2.7
2022-11-19T09:37:25.675Z,2.6
2022-11-19T09:38:25.727Z,2.5
2022-11-19T09:39:25.810Z,2.7
2022-11-19T09:40:25.932Z,2.6
2022-11-19T09:41:25.990Z,2.5
2022-11-19T09:42:26.032Z,2.6
2022-11-19T09:43:26.089Z,2.6
2022-11-19T09:44:26.177Z,2.7
2022-11-19T09:45:26.262Z,2.8
2022-11-19T09:46:26.291Z,2.8
2022-11-19T09:47:26.395Z,2.7
2022-11-19T09:48:26.485Z,2.9
2022-11-19T09:49:26.517Z,2.9
2022-11-19T09:50:26.621Z,3
2022-11-19T09:51:26.764Z,2.9
2022-11-19T09:52:31.497Z,2.8
2022-11-19T09:53:28.538Z,2.8
2022-11-19T09:54:26.934Z,2.7
2022-11-19T09:55:27.007Z,2.7
2022-11-19T09:56:27.080Z,2.7
2022-11-19T09:57:27.194Z,2.7
2022-11-19T09:58:27.207Z,2.8
2022-11-19T09:59:27.292Z,3
2022-11-19T10:00:27.423Z,3.1
2022-11-19T10:01:27.503Z,2.9
2022-11-19T10:02:27.567Z,2.9
2022-11-19T10:03:33.055Z,3.1
2022-11-19T10:04:27.656Z,2.9
2022-11-19T10:05:27.719Z,2.9
2022-11-19T10:06:27.778Z,3.1
2022-11-19T10:07:27.879Z,3.2
2022-11-19T10:08:27.939Z,3.3
2022-11-19T10:09:28.014Z,3.1
2022-11-19T10:10:28.093Z,2.9
2022-11-19T10:11:28.145Z,2.8
2022-11-19T10:12:28.235Z,2.9
2022-11-19T10:13:28.323Z,2.8
2022-11-19T10:14:28.376Z,3
2022-11-19T10:15:30.901Z,3
2022-11-19T10:16:28.493Z,3
2022-11-19T10:17:28.594Z,3
2022-11-19T10:18:28.597Z,2.9
2022-11-19T10:19:28.688Z,3.1
2022-11-19T10:20:28.729Z,3.3
2022-11-19T10:21:28.849Z,3.1
2022-11-19T10:22:28.801Z,3.1
2022-11-19T10:23:29.053Z,3.1
2022-11-19T10:24:28.924Z,3
2022-11-19T10:25:28.967Z,3
2022-11-19T10:26:29.003Z,3
2022-11-19T10:27:29.075Z,3.2
2022-11-19T10:28:29.160Z,3
2022-11-19T10:29:29.223Z,3
2022-11-19T10:30:29.314Z,3
2022-11-19T10:31:29.352Z,3.1
2022-11-19T10:32:29.447Z,3.1
2022-11-19T10:33:29.645Z,3.4
2022-11-19T10:34:29.576Z,3.4
2022-11-19T10:35:29.676Z,3.3
2022-11-19T10:36:29.726Z,3.3
2022-11-19T10:38:31.640Z,3.2
2022-11-19T10:39:30.143Z,3.1
2022-11-19T10:40:30.633Z,3.3
2022-11-19T10:41:30.670Z,3.1
2022-11-19T10:42:31.080Z,3.1
2022-11-19T10:43:30.197Z,3.1
2022-11-19T10:44:30.311Z,3.2
2022-11-19T10:45:30.410Z,3.1
2022-11-19T10:46:30.446Z,3
2022-11-19T10:47:48.958Z,3.4
2022-11-19T10:48:49.095Z,3.9
2022-11-19T10:49:49.111Z,3.4
2022-11-19T10:50:49.258Z,3.4
2022-11-19T10:51:49.306Z,3.3
2022-11-19T10:52:49.384Z,3
2022-11-19T10:53:49.448Z,3
2022-11-19T10:54:49.550Z,3
2022-11-19T10:55:54.134Z,3
2022-11-19T10:56:49.724Z,3
2022-11-19T10:57:49.825Z,3.1
2022-11-19T10:58:49.909Z,2.9
2022-11-19T10:59:50.004Z,3
2022-11-19T11:00:50.188Z,3
2022-11-19T11:01:50.165Z,3.1
2022-11-19T11:02:50.264Z,3.1
2022-11-19T11:03:50.357Z,3.2
2022-11-19T11:04:50.442Z,3.3
2022-11-19T11:05:50.516Z,3.2
2022-11-19T11:06:50.583Z,3.2
2022-11-19T11:07:51.207Z,3.3
2022-11-19T11:08:50.756Z,3.3
2022-11-19T11:09:50.789Z,3.2
2022-11-19T11:10:50.969Z,3.3
2022-11-19T11:11:52.676Z,3.3
2022-11-19T11:12:50.980Z,3.3
2022-11-19T11:13:51.085Z,3.1
2022-11-19T11:14:51.185Z,3.2
2022-11-19T11:15:51.265Z,3
2022-11-19T11:16:51.399Z,3.1
2022-11-19T11:17:57.093Z,2.9
2022-11-19T11:19:12.095Z,3
2022-11-19T11:20:12.393Z,3.2
2022-11-19T11:21:12.260Z,3.1
2022-11-19T11:22:12.335Z,3.2
2022-11-19T11:23:12.381Z,3.1
2022-11-19T11:24:12.438Z,3
2022-11-19T11:25:12.509Z,3.1
2022-11-19T11:26:12.585Z,3.1
2022-11-19T11:27:12.654Z,3.1
2022-11-19T11:28:12.808Z,3.1
2022-11-19T11:29:12.820Z,3.1
2022-11-19T11:30:12.877Z,3.1
2022-11-19T11:31:12.961Z,3
2022-11-19T11:32:13.004Z,3.1
2022-11-19T11:33:13.051Z,3
2022-11-19T11:34:13.127Z,2.9
2022-11-19T11:35:16.063Z,2.9
2022-11-19T11:36:13.262Z,2.9
2022-11-19T11:37:13.322Z,3
2022-11-19T11:38:13.405Z,3
2022-11-19T11:39:13.473Z,3.1
2022-11-19T11:40:13.620Z,3
2022-11-19T11:42:17.372Z,3
2022-11-19T11:42:17.734Z,2.9
2022-11-19T11:43:13.801Z,3
2022-11-19T11:44:13.869Z,3
2022-11-19T11:45:13.975Z,3.1
2022-11-19T11:46:14.092Z,2.9
2022-11-19T11:47:14.122Z,3
2022-11-19T11:48:14.239Z,3.1
2022-11-19T11:49:14.285Z,3.1
2022-11-19T11:50:14.452Z,3.1
2022-11-19T11:51:14.442Z,3.1
2022-11-19T11:52:14.516Z,3.1
2022-11-19T11:53:14.571Z,3
2022-11-19T11:54:17.914Z,3
2022-11-19T11:55:14.726Z,2.9
2022-11-19T11:56:14.852Z,2.8
2022-11-19T11:57:14.886Z,2.8
2022-11-19T11:58:14.962Z,2.8
2022-11-19T11:59:15.048Z,2.8
2022-11-19T12:00:15.123Z,2.7
2022-11-19T12:01:15.943Z,2.6
2022-11-19T12:02:15.272Z,2.9
2022-11-19T12:03:15.561Z,2.9
2022-11-19T12:04:15.473Z,2.9
2022-11-19T12:05:15.515Z,2.9
2022-11-19T12:06:15.622Z,2.9
2022-11-19T12:07:15.718Z,3
2022-11-19T12:08:15.763Z,3.2
2022-11-19T12:09:15.854Z,3.1
2022-11-19T12:10:15.965Z,3.1
2022-11-19T12:11:16.105Z,3
2022-11-19T12:12:16.172Z,2.9
2022-11-19T12:13:16.250Z,2.8
2022-11-19T12:14:16.378Z,2.8
2022-11-19T12:15:16.493Z,2.9
2022-11-19T12:16:16.671Z,2.9
2022-11-19T12:17:16.701Z,2.7
2022-11-19T12:18:16.806Z,2.7
2022-11-19T12:19:16.908Z,2.7
2022-11-19T12:20:17.013Z,2.8
2022-11-19T12:21:17.180Z,2.8
2022-11-19T12:22:17.209Z,2.8
2022-11-19T12:23:17.306Z,2.8
2022-11-19T12:24:17.397Z,2.7
2022-11-19T12:25:17.573Z,2.7
2022-11-19T12:26:17.610Z,2.7
2022-11-19T12:27:17.678Z,2.6
2022-11-19T12:28:17.772Z,2.6
2022-11-19T12:29:18.049Z,2.8
2022-11-19T12:30:17.978Z,2.9
2022-11-19T12:31:18.060Z,2.7
2022-11-19T12:32:18.145Z,2.8
2022-11-19T12:33:18.614Z,2.9
2022-11-19T12:34:18.398Z,3
2022-11-19T12:35:18.452Z,2.9
2022-11-19T12:36:18.579Z,2.8
2022-11-19T12:37:18.618Z,2.9
2022-11-19T12:38:18.731Z,2.9
2022-11-19T12:39:19.003Z,2.8
2022-11-19T12:40:18.852Z,2.6
2022-11-19T12:41:18.957Z,2.8
2022-11-19T12:42:19.056Z,2.8
2022-11-19T12:43:19.109Z,2.8
2022-11-19T12:44:19.170Z,3
2022-11-19T12:45:19.242Z,3.1
2022-11-19T12:46:19.319Z,2.9
2022-11-19T12:47:19.410Z,2.9
2022-11-19T12:48:19.598Z,3.1
2022-11-19T12:49:19.711Z,3.2
2022-11-19T12:50:19.582Z,3.2
2022-11-19T12:51:19.689Z,3.2
2022-11-19T12:52:19.788Z,3
2022-11-19T12:53:19.857Z,3
2022-11-19T12:54:26.886Z,2.9
2022-11-19T12:55:20.034Z,2.9
2022-11-19T12:56:22.000Z,3
2022-11-19T12:57:23.758Z,3.1
2022-11-19T12:58:25.099Z,3.1
2022-11-19T12:59:32.619Z,3.1
2022-11-19T13:01:18.316Z,3.2
2022-11-19T13:01:26.598Z,3.1
2022-11-19T13:02:26.226Z,3.1
2022-11-19T13:03:44.919Z,2.9
2022-11-19T13:04:24.429Z,3.1
2022-11-19T13:05:22.580Z,3.3
2022-11-19T13:09:48.962Z,3.2
2022-11-19T13:09:48.968Z,3.3
2022-11-19T13:09:48.973Z,3
2022-11-19T13:09:48.982Z,3
2022-11-19T13:10:21.530Z,3.3
2022-11-19T13:11:21.312Z,3
2022-11-19T13:12:21.431Z,3.1
2022-11-19T13:13:21.517Z,3.2
2022-11-19T13:14:21.585Z,3.2
2022-11-19T13:15:21.701Z,3
2022-11-19T13:16:21.765Z,3
2022-11-19T13:17:21.844Z,3
2022-11-19T13:18:21.946Z,3.2
2022-11-19T13:19:22.394Z,3.2
2022-11-19T13:20:22.221Z,3.1
2022-11-19T13:21:22.191Z,2.9
2022-11-19T13:22:22.297Z,2.8
2022-11-19T13:23:22.346Z,2.9
2022-11-19T13:24:22.440Z,2.7
2022-11-19T13:25:22.582Z,2.8
2022-11-19T13:26:22.613Z,2.8
2022-11-19T13:27:23.364Z,2.9
2022-11-19T13:28:22.800Z,2.7
2022-11-19T13:29:23.029Z,2.7
2022-11-19T13:30:22.983Z,2.7
2022-11-19T13:31:23.054Z,2.8
2022-11-19T13:32:23.142Z,3.1
2022-11-19T13:33:23.248Z,3.1
2022-11-19T13:34:23.320Z,3.1
2022-11-19T13:35:23.458Z,3
2022-11-19T13:36:23.487Z,3
2022-11-19T13:37:23.610Z,3
2022-11-19T13:38:23.696Z,2.9
2022-11-19T13:39:23.775Z,2.9
2022-11-19T13:40:23.898Z,2.9
2022-11-19T13:41:23.985Z,3.1
2022-11-19T13:42:24.062Z,3
2022-11-19T13:43:31.870Z,2.9
2022-11-19T13:44:24.232Z,2.9
2022-11-19T13:45:24.314Z,3
2022-11-19T13:46:24.380Z,2.9
2022-11-19T13:47:24.465Z,2.9
2022-11-19T13:48:24.558Z,3
2022-11-19T13:49:24.640Z,3
2022-11-19T13:50:24.784Z,3.1
2022-11-19T13:51:24.824Z,3.2
2022-11-19T13:52:24.964Z,3.1
2022-11-19T13:53:25.074Z,3.2
2022-11-19T13:54:25.151Z,3.3
2022-11-19T13:55:25.214Z,3.3
2022-11-19T13:56:25.463Z,3.3
2022-11-19T13:57:25.305Z,3.2
2022-11-19T13:58:25.358Z,3
2022-11-19T13:59:25.676Z,2.9
2022-11-19T14:00:25.525Z,2.9
2022-11-19T14:01:29.778Z,2.8
2022-11-19T14:02:25.624Z,2.8
2022-11-19T14:03:25.713Z,3
2022-11-19T14:04:25.801Z,3.1
2022-11-19T14:05:25.887Z,3.3
2022-11-19T14:06:27.586Z,3.3
2022-11-19T14:07:30.792Z,3.3
2022-11-19T14:08:26.089Z,3.2
2022-11-19T14:09:34.786Z,3.2
2022-11-19T14:10:32.332Z,3.3
2022-11-19T14:11:26.390Z,3.3
2022-11-19T14:12:26.565Z,3.2
2022-11-19T14:14:27.074Z,3.2
2022-11-19T14:15:26.995Z,3.2
2022-11-19T14:16:26.859Z,3
2022-11-19T14:17:27.133Z,3.3
2022-11-19T14:19:28.863Z,3.3
2022-11-19T14:21:05.904Z,3.2
2022-11-19T14:22:27.646Z,3.2
2022-11-19T14:23:31.594Z,3.1
2022-11-19T14:24:27.493Z,3.3
2022-11-19T14:25:27.637Z,3.2
2022-11-19T14:26:27.698Z,3.2
2022-11-19T14:27:29.574Z,3.3
2022-11-19T14:28:28.041Z,3.2
2022-11-19T14:29:28.442Z,3.1
2022-11-19T14:30:28.556Z,3
2022-11-19T14:31:29.914Z,2.9
2022-11-19T14:32:54.515Z,2.9
2022-11-19T14:35:33.170Z,3.2
2022-11-19T14:45:32.619Z,3.2
2022-11-19T15:08:25.510Z,3.1
2022-11-19T15:09:27.600Z,3
2022-11-19T15:10:25.605Z,3
2022-11-19T15:11:25.680Z,3
2022-11-19T15:12:26.472Z,3
2022-11-19T15:13:25.722Z,3
2022-11-19T15:14:25.760Z,3.1
2022-11-19T15:15:26.108Z,3.2
2022-11-19T15:16:25.792Z,3
2022-11-19T15:17:25.817Z,2.9
2022-11-19T15:18:25.868Z,2.9
2022-11-19T15:19:25.936Z,3
2022-11-19T15:20:25.936Z,2.9
2022-11-19T15:21:26.223Z,2.9
2022-11-19T15:22:26.007Z,2.8
2022-11-19T15:23:26.080Z,2.9
2022-11-19T15:24:26.379Z,2.8
2022-11-19T15:25:26.087Z,2.7
2022-11-19T15:26:26.145Z,2.8
2022-11-19T15:27:27.365Z,2.8
2022-11-19T15:28:26.199Z,2.8
2022-11-19T15:29:26.208Z,2.8
2022-11-19T15:30:26.282Z,2.7
2022-11-19T15:31:26.263Z,2.7
2022-11-19T15:32:26.303Z,2.7
2022-11-19T15:33:27.055Z,2.7
2022-11-19T15:34:32.095Z,2.9
2022-11-19T15:35:26.497Z,2.9
2022-11-19T15:36:26.508Z,2.9
2022-11-19T15:37:27.509Z,2.9
2022-11-19T15:38:26.506Z,2.8
2022-11-19T15:39:27.794Z,2.8
2022-11-19T15:40:26.584Z,2.9
2022-11-19T15:41:26.658Z,3
2022-11-19T15:42:26.651Z,3
2022-11-19T15:43:26.744Z,2.9
2022-11-19T15:44:26.747Z,2.9
2022-11-19T15:45:28.518Z,2.8
2022-11-19T15:46:30.054Z,3
2022-11-19T15:47:26.911Z,2.8
2022-11-19T15:48:26.948Z,2.8
2022-11-19T15:49:27.019Z,2.9
2022-11-19T15:50:26.981Z,3
2022-11-19T15:51:27.091Z,2.9
2022-11-19T15:52:27.035Z,2.9
2022-11-19T15:53:27.098Z,2.9
2022-11-19T15:54:27.545Z,2.8
2022-11-19T15:55:27.215Z,2.8
2022-11-19T15:56:27.237Z,2.8
2022-11-19T15:57:27.587Z,2.7
2022-11-19T15:58:27.283Z,2.8
2022-11-19T15:59:27.338Z,2.7
2022-11-19T16:00:27.384Z,2.6
2022-11-19T16:01:56.386Z,2.7
2022-11-19T16:02:27.465Z,2.8
2022-11-19T16:03:27.493Z,2.8
2022-11-19T16:04:27.528Z,3.1
2022-11-19T16:05:27.632Z,3
2022-11-19T16:06:27.616Z,2.8
2022-11-19T16:07:27.659Z,2.6
2022-11-19T16:08:27.682Z,2.6
2022-11-19T16:09:27.754Z,2.7
2022-11-19T16:10:27.734Z,2.7
2022-11-19T16:11:27.842Z,2.7
2022-11-19T16:12:27.831Z,2.8
2022-11-19T16:13:27.969Z,2.9
2022-11-19T16:14:27.891Z,2.9
2022-11-19T16:15:27.968Z,2.7
2022-11-19T16:16:27.983Z,2.7
2022-11-19T16:17:28.615Z,2.6
2022-11-19T16:18:28.089Z,2.7
2022-11-19T16:19:28.286Z,2.7
2022-11-19T16:20:28.247Z,2.8